Detall de PIREP

Printer-friendly versionPDF version

[2012/03/17 16:34:00]
Flight IATA:CT1006
Pilot Number:042
Company ICAO:CAT
Aircraft Type:B738/F
PAX:100
Departing Airport: LEAL
Destination Airport: LICJ
Alternate Airport:LIRA
Online: VATSIM
Route:MITOS/N0330F260 UN851 MHN UM603 MORSS/N0330F250 UM603 ARSIK UM731 TEKSA UM732 CAR UM871 KAPIL
Flight Level:F330
No Slew and time accel
No pause
Crash detect
Detect pilot in Cockpit between each 30 and 45 minutes
16:34 Zero fuel Weight: 91661 Lbs, Fuel Weight: 46056 Lbs
16:34 VATSIM:LEAL 171600Z 18010KT 150V230 CAVOK 19/09 Q1021 NOSIG
16:34 VATSIM:LICJ 171550Z 04005KT 010V130 CAVOK 17/11 Q1028
16:34 VOICE CATALONIAN/ALMOGAVERS ROUTE
16:45 Parking Brakes off
16:50 Take-off
16:50 Take off Weight: 137045 Lbs
16:50 Wind: 191º @ 008 Knots Heading: 102º
16:50 POS N38º 16´ 54´´ W000º 33´ 17´´
16:50 Gear Up: 165 Knots
16:50 Flaps:5 at 165 Knots
16:50 Flaps:4 at 165 Knots
16:50 Flaps:3 at 144 Knots
16:50 Flaps:2 at 166 Knots
16:50 Flaps:1 at 180 Knots
16:51 Flaps:0 at 211 Knots
17:05 Wind:246º@047 Knots Heading: 066º Ground Speed: 506 Knots Altitude 29829 ft
17:07 TOC
17:07 Fuel Weight: 42048 Lb
17:20 Wind:249º@050 Knots Heading: 067º Ground Speed: 503 Knots Altitude 33284 ft
17:35 Wind:251º@049 Knots Heading: 077º Ground Speed: 501 Knots Altitude 33284 ft
17:50 Wind:266º@049 Knots Heading: 165º Ground Speed: 464 Knots Altitude 33313 ft
18:05 Wind:272º@043 Knots Heading: 111º Ground Speed: 496 Knots Altitude 33323 ft
18:07 TOD
18:07 Fuel Weight: 36178 Lb
18:20 Wind:306º@010 Knots Heading: 103º Ground Speed: 347 Knots Altitude 11919 ft
18:28 Flaps:1 at 224 Knots
18:30 Flaps:2 at 180 Knots
18:31 Flaps:3 at 171 Knots
18:34 Flaps:4 at 171 Knots
18:34 Gear Down: 168 Knots
18:34 Flaps:5 at 168 Knots
18:34 Flaps:6 at 168 Knots
18:34 Flaps:7 at 150 Knots
18:35 Wind:180º@000 Knots Heading: 249º Ground Speed: 153 Knots Altitude 2795 ft
18:35 Flaps:8 at 141 Knots
18:39 TouchDown:Rate -406 ft/min Speed: 106 Knots
18:40 VATSIM:LICJ 171820Z VRB03KT CAVOK 15/09 Q1028
18:40 Land
18:40 Wind:324º@001 Knots
18:40 Heading: 247º
18:40 Flight Duration: 01:50
18:40 Landing Weight: 125711 Lbs
18:40 POS N38º 10´ 39´´ E013º 05´ 47´´
18:43 Parking brakes on
18:43 Block to Block Duration: 01:58
18:43 Final Fuel: 33796 Lbls
18:43 Spent Fuel: 12259 Lbls
18:43 Flight Length: 648 NM
18:43 TOD Land Length: 158 NM

Exportar CSV

Powered by Drupal - Modified by Danger4k